sensor_id;sensor_type;location;lat;lon;timestamp;P1;durP1;ratioP1;P2;durP2;ratioP2
10144;SDS011;5113;41.822;23.564;2024-03-08T00:00:29;12.77;;;8.60;;
10144;SDS011;5113;41.822;23.564;2024-03-08T00:03:39;14.43;;;9.10;;
10144;SDS011;5113;41.822;23.564;2024-03-08T00:06:45;12.73;;;8.40;;
10144;SDS011;5113;41.822;23.564;2024-03-08T00:09:52;11.63;;;7.17;;
10144;SDS011;5113;41.822;23.564;2024-03-08T00:12:59;10.23;;;6.87;;
10144;SDS011;5113;41.822;23.564;2024-03-08T00:16:06;10.40;;;7.30;;
10144;SDS011;5113;41.822;23.564;2024-03-08T00:19:15;12.63;;;7.60;;
10144;SDS011;5113;41.822;23.564;2024-03-08T00:22:22;9.53;;;5.97;;
10144;SDS011;5113;41.822;23.564;2024-03-08T00:25:28;12.50;;;6.30;;
10144;SDS011;5113;41.822;23.564;2024-03-08T00:28:35;8.33;;;6.33;;
10144;SDS011;5113;41.822;23.564;2024-03-08T00:31:42;9.70;;;6.33;;
10144;SDS011;5113;41.822;23.564;2024-03-08T00:34:50;10.67;;;6.70;;
10144;SDS011;5113;41.822;23.564;2024-03-08T00:37:57;9.23;;;6.23;;
10144;SDS011;5113;41.822;23.564;2024-03-08T00:41:04;9.70;;;5.53;;
10144;SDS011;5113;41.822;23.564;2024-03-08T00:44:11;8.43;;;6.97;;
10144;SDS011;5113;41.822;23.564;2024-03-08T00:47:17;9.00;;;5.77;;
10144;SDS011;5113;41.822;23.564;2024-03-08T00:50:25;9.07;;;6.20;;
10144;SDS011;5113;41.822;23.564;2024-03-08T00:53:32;9.17;;;6.73;;
10144;SDS011;5113;41.822;23.564;2024-03-08T00:56:39;10.37;;;6.33;;
10144;SDS011;5113;41.822;23.564;2024-03-08T00:59:45;10.43;;;7.43;;
10144;SDS011;5113;41.822;23.564;2024-03-08T01:02:52;8.07;;;6.93;;
10144;SDS011;5113;41.822;23.564;2024-03-08T01:06:01;13.03;;;7.73;;
10144;SDS011;5113;41.822;23.564;2024-03-08T01:09:08;11.03;;;6.67;;
10144;SDS011;5113;41.822;23.564;2024-03-08T01:12:15;11.53;;;7.13;;
10144;SDS011;5113;41.822;23.564;2024-03-08T01:15:22;8.77;;;6.87;;
10144;SDS011;5113;41.822;23.564;2024-03-08T01:18:29;10.33;;;6.57;;
10144;SDS011;5113;41.822;23.564;2024-03-08T01:21:37;8.60;;;5.90;;
10144;SDS011;5113;41.822;23.564;2024-03-08T01:24:43;7.27;;;5.40;;
10144;SDS011;5113;41.822;23.564;2024-03-08T01:27:49;8.83;;;6.10;;
10144;SDS011;5113;41.822;23.564;2024-03-08T01:30:58;8.33;;;5.67;;
10144;SDS011;5113;41.822;23.564;2024-03-08T01:34:04;13.30;;;7.10;;
10144;SDS011;5113;41.822;23.564;2024-03-08T01:37:16;13.43;;;7.70;;
10144;SDS011;5113;41.822;23.564;2024-03-08T01:40:23;13.93;;;7.13;;
10144;SDS011;5113;41.822;23.564;2024-03-08T01:43:29;9.20;;;6.57;;
10144;SDS011;5113;41.822;23.564;2024-03-08T01:46:36;10.40;;;6.13;;
10144;SDS011;5113;41.822;23.564;2024-03-08T01:49:42;9.03;;;6.07;;
10144;SDS011;5113;41.822;23.564;2024-03-08T01:52:51;7.97;;;5.93;;
10144;SDS011;5113;41.822;23.564;2024-03-08T01:56:00;8.23;;;6.10;;
10144;SDS011;5113;41.822;23.564;2024-03-08T01:59:08;7.37;;;5.77;;
10144;SDS011;5113;41.822;23.564;2024-03-08T02:02:15;8.73;;;5.70;;
10144;SDS011;5113;41.822;23.564;2024-03-08T02:05:24;6.10;;;5.00;;
10144;SDS011;5113;41.822;23.564;2024-03-08T02:08:33;6.93;;;5.27;;
10144;SDS011;5113;41.822;23.564;2024-03-08T02:11:40;6.07;;;4.90;;
10144;SDS011;5113;41.822;23.564;2024-03-08T02:14:47;6.97;;;5.00;;
10144;SDS011;5113;41.822;23.564;2024-03-08T02:17:54;8.17;;;5.10;;
10144;SDS011;5113;41.822;23.564;2024-03-08T02:21:02;8.27;;;5.47;;
10144;SDS011;5113;41.822;23.564;2024-03-08T02:24:10;7.63;;;5.77;;
10144;SDS011;5113;41.822;23.564;2024-03-08T02:27:22;8.90;;;6.10;;
10144;SDS011;5113;41.822;23.564;2024-03-08T02:30:29;8.33;;;5.77;;
10144;SDS011;5113;41.822;23.564;2024-03-08T02:33:35;9.20;;;6.60;;
10144;SDS011;5113;41.822;23.564;2024-03-08T02:36:44;11.70;;;7.83;;
10144;SDS011;5113;41.822;23.564;2024-03-08T02:39:51;10.43;;;7.00;;
10144;SDS011;5113;41.822;23.564;2024-03-08T02:42:58;11.27;;;8.17;;
10144;SDS011;5113;41.822;23.564;2024-03-08T02:46:04;12.53;;;7.87;;
10144;SDS011;5113;41.822;23.564;2024-03-08T02:49:11;12.50;;;7.87;;
10144;SDS011;5113;41.822;23.564;2024-03-08T02:52:19;11.63;;;6.57;;
10144;SDS011;5113;41.822;23.564;2024-03-08T02:55:26;13.13;;;7.70;;
10144;SDS011;5113;41.822;23.564;2024-03-08T02:58:34;32.10;;;16.23;;
10144;SDS011;5113;41.822;23.564;2024-03-08T03:01:40;21.10;;;11.37;;
10144;SDS011;5113;41.822;23.564;2024-03-08T03:04:47;16.43;;;10.27;;
10144;SDS011;5113;41.822;23.564;2024-03-08T03:07:56;17.47;;;9.97;;
10144;SDS011;5113;41.822;23.564;2024-03-08T03:11:03;14.90;;;9.30;;
10144;SDS011;5113;41.822;23.564;2024-03-08T03:14:10;44.20;;;18.20;;
10144;SDS011;5113;41.822;23.564;2024-03-08T03:17:16;65.10;;;29.83;;
10144;SDS011;5113;41.822;23.564;2024-03-08T03:20:24;97.70;;;46.90;;
10144;SDS011;5113;41.822;23.564;2024-03-08T03:23:39;18.30;;;10.43;;
10144;SDS011;5113;41.822;23.564;2024-03-08T03:26:46;21.10;;;12.17;;
10144;SDS011;5113;41.822;23.564;2024-03-08T03:29:53;18.20;;;11.97;;
10144;SDS011;5113;41.822;23.564;2024-03-08T03:33:02;16.43;;;11.30;;
10144;SDS011;5113;41.822;23.564;2024-03-08T03:36:12;19.33;;;10.67;;
10144;SDS011;5113;41.822;23.564;2024-03-08T03:39:20;15.23;;;9.87;;
10144;SDS011;5113;41.822;23.564;2024-03-08T03:42:27;14.20;;;10.37;;
10144;SDS011;5113;41.822;23.564;2024-03-08T03:45:33;15.73;;;9.57;;
10144;SDS011;5113;41.822;23.564;2024-03-08T03:48:41;14.93;;;8.53;;
10144;SDS011;5113;41.822;23.564;2024-03-08T03:51:48;10.73;;;8.60;;
10144;SDS011;5113;41.822;23.564;2024-03-08T03:54:56;13.07;;;8.53;;
10144;SDS011;5113;41.822;23.564;2024-03-08T03:58:03;11.57;;;8.93;;
10144;SDS011;5113;41.822;23.564;2024-03-08T04:01:09;11.50;;;8.10;;
10144;SDS011;5113;41.822;23.564;2024-03-08T04:04:16;11.93;;;6.73;;
10144;SDS011;5113;41.822;23.564;2024-03-08T04:07:22;7.93;;;6.20;;
10144;SDS011;5113;41.822;23.564;2024-03-08T04:10:30;14.00;;;7.33;;
10144;SDS011;5113;41.822;23.564;2024-03-08T04:13:37;12.07;;;8.47;;
10144;SDS011;5113;41.822;23.564;2024-03-08T04:16:43;13.97;;;8.37;;
10144;SDS011;5113;41.822;23.564;2024-03-08T04:19:51;15.47;;;9.43;;
10144;SDS011;5113;41.822;23.564;2024-03-08T04:22:59;14.13;;;7.97;;
10144;SDS011;5113;41.822;23.564;2024-03-08T04:26:06;17.83;;;11.43;;
10144;SDS011;5113;41.822;23.564;2024-03-08T04:29:13;11.87;;;7.80;;
10144;SDS011;5113;41.822;23.564;2024-03-08T04:32:21;12.50;;;7.90;;
10144;SDS011;5113;41.822;23.564;2024-03-08T04:35:28;15.63;;;9.57;;
10144;SDS011;5113;41.822;23.564;2024-03-08T04:38:35;11.57;;;7.07;;
10144;SDS011;5113;41.822;23.564;2024-03-08T04:41:46;13.13;;;8.40;;
10144;SDS011;5113;41.822;23.564;2024-03-08T04:44:53;13.97;;;8.60;;
10144;SDS011;5113;41.822;23.564;2024-03-08T04:48:00;15.30;;;8.70;;
10144;SDS011;5113;41.822;23.564;2024-03-08T04:51:07;11.87;;;7.50;;
10144;SDS011;5113;41.822;23.564;2024-03-08T04:54:14;53.13;;;23.87;;
10144;SDS011;5113;41.822;23.564;2024-03-08T04:57:22;47.40;;;26.03;;
10144;SDS011;5113;41.822;23.564;2024-03-08T05:00:30;41.23;;;21.90;;
10144;SDS011;5113;41.822;23.564;2024-03-08T05:03:37;23.07;;;13.87;;
10144;SDS011;5113;41.822;23.564;2024-03-08T05:06:43;12.93;;;8.10;;
10144;SDS011;5113;41.822;23.564;2024-03-08T05:09:50;14.87;;;9.53;;
10144;SDS011;5113;41.822;23.564;2024-03-08T05:12:58;33.50;;;18.03;;
10144;SDS011;5113;41.822;23.564;2024-03-08T05:16:05;42.60;;;19.70;;
10144;SDS011;5113;41.822;23.564;2024-03-08T05:19:12;31.47;;;17.00;;
10144;SDS011;5113;41.822;23.564;2024-03-08T05:22:19;26.67;;;14.97;;
10144;SDS011;5113;41.822;23.564;2024-03-08T05:25:26;21.00;;;11.87;;
10144;SDS011;5113;41.822;23.564;2024-03-08T05:28:34;15.73;;;11.17;;
10144;SDS011;5113;41.822;23.564;2024-03-08T05:31:43;41.70;;;19.27;;
10144;SDS011;5113;41.822;23.564;2024-03-08T05:34:52;49.40;;;25.17;;
10144;SDS011;5113;41.822;23.564;2024-03-08T05:37:59;36.23;;;19.93;;
10144;SDS011;5113;41.822;23.564;2024-03-08T05:41:06;32.50;;;19.20;;
10144;SDS011;5113;41.822;23.564;2024-03-08T05:44:15;15.30;;;9.80;;
10144;SDS011;5113;41.822;23.564;2024-03-08T05:47:22;11.40;;;7.20;;
10144;SDS011;5113;41.822;23.564;2024-03-08T05:50:31;10.30;;;7.67;;
10144;SDS011;5113;41.822;23.564;2024-03-08T05:53:38;24.77;;;12.57;;
10144;SDS011;5113;41.822;23.564;2024-03-08T05:56:44;21.00;;;11.70;;
10144;SDS011;5113;41.822;23.564;2024-03-08T05:59:54;19.00;;;12.37;;
10144;SDS011;5113;41.822;23.564;2024-03-08T06:03:01;25.70;;;14.87;;
10144;SDS011;5113;41.822;23.564;2024-03-08T06:06:08;20.40;;;11.43;;
10144;SDS011;5113;41.822;23.564;2024-03-08T06:09:14;19.90;;;12.50;;
10144;SDS011;5113;41.822;23.564;2024-03-08T06:12:22;26.20;;;13.70;;
10144;SDS011;5113;41.822;23.564;2024-03-08T06:15:35;10.13;;;8.20;;
10144;SDS011;5113;41.822;23.564;2024-03-08T06:18:41;8.30;;;6.47;;
10144;SDS011;5113;41.822;23.564;2024-03-08T06:21:48;13.63;;;9.43;;
10144;SDS011;5113;41.822;23.564;2024-03-08T06:24:55;13.40;;;8.73;;
10144;SDS011;5113;41.822;23.564;2024-03-08T06:28:02;9.83;;;6.53;;
10144;SDS011;5113;41.822;23.564;2024-03-08T06:31:10;8.80;;;5.77;;
10144;SDS011;5113;41.822;23.564;2024-03-08T06:34:17;9.53;;;5.90;;
10144;SDS011;5113;41.822;23.564;2024-03-08T06:37:23;5.10;;;4.50;;
10144;SDS011;5113;41.822;23.564;2024-03-08T06:40:30;5.80;;;4.03;;
10144;SDS011;5113;41.822;23.564;2024-03-08T06:43:36;13.37;;;5.70;;
10144;SDS011;5113;41.822;23.564;2024-03-08T06:46:46;9.93;;;4.37;;
10144;SDS011;5113;41.822;23.564;2024-03-08T06:49:52;7.63;;;6.00;;
10144;SDS011;5113;41.822;23.564;2024-03-08T06:52:59;12.43;;;7.37;;
10144;SDS011;5113;41.822;23.564;2024-03-08T06:56:05;6.90;;;5.17;;
10144;SDS011;5113;41.822;23.564;2024-03-08T06:59:12;7.50;;;4.67;;
10144;SDS011;5113;41.822;23.564;2024-03-08T07:02:20;5.90;;;3.67;;
10144;SDS011;5113;41.822;23.564;2024-03-08T07:05:29;4.27;;;3.87;;
10144;SDS011;5113;41.822;23.564;2024-03-08T07:08:37;4.80;;;4.00;;
10144;SDS011;5113;41.822;23.564;2024-03-08T07:11:44;5.53;;;4.03;;
10144;SDS011;5113;41.822;23.564;2024-03-08T07:14:51;6.70;;;4.33;;
10144;SDS011;5113;41.822;23.564;2024-03-08T07:17:59;4.73;;;3.43;;
10144;SDS011;5113;41.822;23.564;2024-03-08T07:21:10;3.77;;;2.90;;
10144;SDS011;5113;41.822;23.564;2024-03-08T07:24:17;7.17;;;4.87;;
10144;SDS011;5113;41.822;23.564;2024-03-08T07:27:44;4.40;;;3.40;;
10144;SDS011;5113;41.822;23.564;2024-03-08T07:30:50;11.03;;;4.20;;
10144;SDS011;5113;41.822;23.564;2024-03-08T07:34:14;7.40;;;5.33;;
10144;SDS011;5113;41.822;23.564;2024-03-08T07:37:21;9.83;;;5.50;;
10144;SDS011;5113;41.822;23.564;2024-03-08T07:40:28;5.30;;;3.97;;
10144;SDS011;5113;41.822;23.564;2024-03-08T07:43:34;4.20;;;3.57;;
10144;SDS011;5113;41.822;23.564;2024-03-08T07:46:41;10.77;;;5.27;;
10144;SDS011;5113;41.822;23.564;2024-03-08T07:49:48;3.97;;;2.97;;
10144;SDS011;5113;41.822;23.564;2024-03-08T07:52:55;3.27;;;2.97;;
10144;SDS011;5113;41.822;23.564;2024-03-08T07:56:02;2.17;;;2.07;;
10144;SDS011;5113;41.822;23.564;2024-03-08T07:59:09;3.57;;;2.27;;
10144;SDS011;5113;41.822;23.564;2024-03-08T08:02:16;2.70;;;2.50;;
10144;SDS011;5113;41.822;23.564;2024-03-08T08:05:24;5.93;;;5.43;;
10144;SDS011;5113;41.822;23.564;2024-03-08T08:08:32;3.57;;;3.13;;
10144;SDS011;5113;41.822;23.564;2024-03-08T08:11:38;3.77;;;3.37;;
10144;SDS011;5113;41.822;23.564;2024-03-08T08:14:45;3.67;;;2.77;;
10144;SDS011;5113;41.822;23.564;2024-03-08T08:17:52;2.23;;;2.13;;
10144;SDS011;5113;41.822;23.564;2024-03-08T08:21:00;3.67;;;2.90;;
10144;SDS011;5113;41.822;23.564;2024-03-08T08:24:07;2.20;;;2.07;;
10144;SDS011;5113;41.822;23.564;2024-03-08T08:27:15;3.87;;;3.47;;
10144;SDS011;5113;41.822;23.564;2024-03-08T08:30:22;2.73;;;2.53;;
10144;SDS011;5113;41.822;23.564;2024-03-08T08:33:28;11.23;;;6.97;;
10144;SDS011;5113;41.822;23.564;2024-03-08T08:36:36;3.60;;;3.30;;
10144;SDS011;5113;41.822;23.564;2024-03-08T08:39:43;1.80;;;1.70;;
10144;SDS011;5113;41.822;23.564;2024-03-08T08:42:50;1.97;;;1.70;;
10144;SDS011;5113;41.822;23.564;2024-03-08T08:45:57;2.47;;;2.13;;
10144;SDS011;5113;41.822;23.564;2024-03-08T08:49:04;3.27;;;2.90;;
10144;SDS011;5113;41.822;23.564;2024-03-08T08:52:12;3.40;;;2.60;;
10144;SDS011;5113;41.822;23.564;2024-03-08T08:55:21;1.67;;;1.57;;
10144;SDS011;5113;41.822;23.564;2024-03-08T08:58:31;1.70;;;1.60;;
10144;SDS011;5113;41.822;23.564;2024-03-08T09:01:37;2.60;;;2.40;;
10144;SDS011;5113;41.822;23.564;2024-03-08T09:04:43;2.37;;;2.17;;
10144;SDS011;5113;41.822;23.564;2024-03-08T09:07:51;2.60;;;2.40;;
10144;SDS011;5113;41.822;23.564;2024-03-08T09:10:58;2.10;;;1.90;;
10144;SDS011;5113;41.822;23.564;2024-03-08T09:14:05;1.80;;;1.70;;
10144;SDS011;5113;41.822;23.564;2024-03-08T09:17:12;2.30;;;2.20;;
10144;SDS011;5113;41.822;23.564;2024-03-08T09:20:22;2.30;;;2.10;;
10144;SDS011;5113;41.822;23.564;2024-03-08T09:23:31;2.37;;;2.27;;
10144;SDS011;5113;41.822;23.564;2024-03-08T09:26:37;4.10;;;2.63;;
10144;SDS011;5113;41.822;23.564;2024-03-08T09:29:46;2.60;;;2.40;;
10144;SDS011;5113;41.822;23.564;2024-03-08T09:32:53;2.93;;;2.63;;
10144;SDS011;5113;41.822;23.564;2024-03-08T09:36:03;3.80;;;3.17;;
10144;SDS011;5113;41.822;23.564;2024-03-08T09:39:11;1.90;;;1.80;;
10144;SDS011;5113;41.822;23.564;2024-03-08T09:42:21;2.03;;;1.93;;
10144;SDS011;5113;41.822;23.564;2024-03-08T09:45:27;2.03;;;1.93;;
10144;SDS011;5113;41.822;23.564;2024-03-08T09:48:38;2.23;;;2.03;;
10144;SDS011;5113;41.822;23.564;2024-03-08T09:51:46;2.10;;;1.90;;
10144;SDS011;5113;41.822;23.564;2024-03-08T09:54:57;7.83;;;4.83;;
10144;SDS011;5113;41.822;23.564;2024-03-08T09:58:05;2.80;;;2.23;;
10144;SDS011;5113;41.822;23.564;2024-03-08T10:01:30;2.63;;;2.40;;
10144;SDS011;5113;41.822;23.564;2024-03-08T10:04:36;2.50;;;2.30;;
10144;SDS011;5113;41.822;23.564;2024-03-08T10:07:47;3.40;;;2.30;;
10144;SDS011;5113;41.822;23.564;2024-03-08T10:10:55;2.23;;;2.10;;
10144;SDS011;5113;41.822;23.564;2024-03-08T10:14:03;3.40;;;2.83;;
10144;SDS011;5113;41.822;23.564;2024-03-08T10:17:11;2.50;;;2.30;;
10144;SDS011;5113;41.822;23.564;2024-03-08T10:20:18;20.57;;;10.17;;
10144;SDS011;5113;41.822;23.564;2024-03-08T10:23:25;5.57;;;3.37;;
10144;SDS011;5113;41.822;23.564;2024-03-08T10:26:34;5.37;;;3.90;;
10144;SDS011;5113;41.822;23.564;2024-03-08T10:29:46;3.20;;;2.90;;
10144;SDS011;5113;41.822;23.564;2024-03-08T10:32:55;5.40;;;3.07;;
10144;SDS011;5113;41.822;23.564;2024-03-08T10:36:03;1.70;;;1.70;;
10144;SDS011;5113;41.822;23.564;2024-03-08T10:39:14;2.40;;;2.20;;
10144;SDS011;5113;41.822;23.564;2024-03-08T10:42:29;1.93;;;1.80;;
10144;SDS011;5113;41.822;23.564;2024-03-08T10:45:42;2.17;;;2.07;;
10144;SDS011;5113;41.822;23.564;2024-03-08T10:48:53;3.40;;;2.10;;
10144;SDS011;5113;41.822;23.564;2024-03-08T10:52:07;1.80;;;1.70;;
10144;SDS011;5113;41.822;23.564;2024-03-08T10:55:18;4.80;;;3.97;;
10144;SDS011;5113;41.822;23.564;2024-03-08T10:58:27;4.67;;;3.53;;
10144;SDS011;5113;41.822;23.564;2024-03-08T11:01:34;1.80;;;1.70;;
10144;SDS011;5113;41.822;23.564;2024-03-08T11:04:45;1.90;;;1.80;;
10144;SDS011;5113;41.822;23.564;2024-03-08T11:07:53;2.50;;;2.40;;
10144;SDS011;5113;41.822;23.564;2024-03-08T11:11:00;2.80;;;2.60;;
10144;SDS011;5113;41.822;23.564;2024-03-08T11:14:08;2.83;;;2.63;;
10144;SDS011;5113;41.822;23.564;2024-03-08T11:17:57;2.27;;;2.17;;
10144;SDS011;5113;41.822;23.564;2024-03-08T11:21:08;3.13;;;2.77;;
10144;SDS011;5113;41.822;23.564;2024-03-08T11:24:17;2.73;;;2.53;;
10144;SDS011;5113;41.822;23.564;2024-03-08T11:27:28;4.30;;;3.53;;
10144;SDS011;5113;41.822;23.564;2024-03-08T11:30:37;3.70;;;3.13;;
10144;SDS011;5113;41.822;23.564;2024-03-08T11:33:44;4.70;;;4.20;;
10144;SDS011;5113;41.822;23.564;2024-03-08T11:36:54;6.70;;;4.60;;
10144;SDS011;5113;41.822;23.564;2024-03-08T11:40:01;3.57;;;2.80;;
10144;SDS011;5113;41.822;23.564;2024-03-08T11:43:09;2.50;;;2.30;;
10144;SDS011;5113;41.822;23.564;2024-03-08T11:46:17;2.70;;;2.50;;
10144;SDS011;5113;41.822;23.564;2024-03-08T11:49:24;2.77;;;2.57;;
10144;SDS011;5113;41.822;23.564;2024-03-08T11:52:30;8.07;;;6.57;;
10144;SDS011;5113;41.822;23.564;2024-03-08T11:55:36;20.10;;;15.47;;
10144;SDS011;5113;41.822;23.564;2024-03-08T11:58:52;3.90;;;3.60;;
10144;SDS011;5113;41.822;23.564;2024-03-08T12:02:02;3.17;;;2.87;;
10144;SDS011;5113;41.822;23.564;2024-03-08T12:05:10;2.50;;;2.30;;
10144;SDS011;5113;41.822;23.564;2024-03-08T12:08:20;7.07;;;4.77;;
10144;SDS011;5113;41.822;23.564;2024-03-08T12:11:27;2.73;;;2.13;;
10144;SDS011;5113;41.822;23.564;2024-03-08T12:14:37;4.03;;;3.10;;
10144;SDS011;5113;41.822;23.564;2024-03-08T12:17:46;6.87;;;5.37;;
10144;SDS011;5113;41.822;23.564;2024-03-08T12:21:03;7.87;;;6.57;;
10144;SDS011;5113;41.822;23.564;2024-03-08T12:24:12;7.43;;;5.73;;
10144;SDS011;5113;41.822;23.564;2024-03-08T12:27:23;2.90;;;2.63;;
10144;SDS011;5113;41.822;23.564;2024-03-08T12:30:33;2.77;;;2.57;;
10144;SDS011;5113;41.822;23.564;2024-03-08T12:33:48;5.30;;;4.23;;
10144;SDS011;5113;41.822;23.564;2024-03-08T12:36:59;4.27;;;3.13;;
10144;SDS011;5113;41.822;23.564;2024-03-08T12:40:07;4.20;;;3.37;;
10144;SDS011;5113;41.822;23.564;2024-03-08T12:43:15;4.23;;;3.83;;
10144;SDS011;5113;41.822;23.564;2024-03-08T12:46:22;3.10;;;2.80;;
10144;SDS011;5113;41.822;23.564;2024-03-08T12:49:33;4.33;;;3.30;;
10144;SDS011;5113;41.822;23.564;2024-03-08T12:52:39;3.93;;;2.53;;
10144;SDS011;5113;41.822;23.564;2024-03-08T12:55:46;5.00;;;3.10;;
10144;SDS011;5113;41.822;23.564;2024-03-08T12:58:52;7.43;;;4.10;;
10144;SDS011;5113;41.822;23.564;2024-03-08T13:01:59;3.07;;;2.50;;
10144;SDS011;5113;41.822;23.564;2024-03-08T13:05:07;6.40;;;2.53;;
10144;SDS011;5113;41.822;23.564;2024-03-08T13:08:15;8.23;;;2.80;;
10144;SDS011;5113;41.822;23.564;2024-03-08T13:11:22;6.17;;;4.93;;
10144;SDS011;5113;41.822;23.564;2024-03-08T13:14:29;6.70;;;4.07;;
10144;SDS011;5113;41.822;23.564;2024-03-08T13:17:38;8.13;;;5.60;;
10144;SDS011;5113;41.822;23.564;2024-03-08T13:20:46;2.60;;;2.40;;
10144;SDS011;5113;41.822;23.564;2024-03-08T13:23:57;10.43;;;8.47;;
10144;SDS011;5113;41.822;23.564;2024-03-08T13:27:05;6.60;;;4.90;;
10144;SDS011;5113;41.822;23.564;2024-03-08T13:30:23;4.37;;;3.40;;
10144;SDS011;5113;41.822;23.564;2024-03-08T13:33:31;3.00;;;2.80;;
10144;SDS011;5113;41.822;23.564;2024-03-08T13:36:41;3.87;;;3.57;;
10144;SDS011;5113;41.822;23.564;2024-03-08T13:39:49;3.13;;;2.83;;
10144;SDS011;5113;41.822;23.564;2024-03-08T13:42:55;3.13;;;2.70;;
10144;SDS011;5113;41.822;23.564;2024-03-08T13:46:03;4.10;;;3.23;;
10144;SDS011;5113;41.822;23.564;2024-03-08T13:49:10;5.93;;;4.63;;
10144;SDS011;5113;41.822;23.564;2024-03-08T13:52:19;4.37;;;3.93;;
10144;SDS011;5113;41.822;23.564;2024-03-08T13:55:25;4.23;;;3.53;;
10144;SDS011;5113;41.822;23.564;2024-03-08T13:58:32;4.60;;;4.17;;
10144;SDS011;5113;41.822;23.564;2024-03-08T14:01:39;10.87;;;5.63;;
10144;SDS011;5113;41.822;23.564;2024-03-08T14:04:48;4.23;;;3.83;;
10144;SDS011;5113;41.822;23.564;2024-03-08T14:07:57;12.97;;;8.80;;
10144;SDS011;5113;41.822;23.564;2024-03-08T14:11:05;10.17;;;7.07;;
10144;SDS011;5113;41.822;23.564;2024-03-08T14:14:16;3.57;;;3.27;;
10144;SDS011;5113;41.822;23.564;2024-03-08T14:17:22;5.43;;;4.90;;
10144;SDS011;5113;41.822;23.564;2024-03-08T14:20:31;27.80;;;16.63;;
10144;SDS011;5113;41.822;23.564;2024-03-08T14:23:42;28.03;;;15.33;;
10144;SDS011;5113;41.822;23.564;2024-03-08T14:26:48;46.40;;;27.27;;
10144;SDS011;5113;41.822;23.564;2024-03-08T14:29:55;22.00;;;14.13;;
10144;SDS011;5113;41.822;23.564;2024-03-08T14:33:03;28.00;;;13.13;;
10144;SDS011;5113;41.822;23.564;2024-03-08T14:36:14;26.83;;;11.90;;
10144;SDS011;5113;41.822;23.564;2024-03-08T14:39:23;15.07;;;10.50;;
10144;SDS011;5113;41.822;23.564;2024-03-08T14:42:31;61.93;;;36.33;;
10144;SDS011;5113;41.822;23.564;2024-03-08T14:45:37;38.80;;;21.07;;
10144;SDS011;5113;41.822;23.564;2024-03-08T14:48:45;54.50;;;36.53;;
10144;SDS011;5113;41.822;23.564;2024-03-08T14:51:55;17.10;;;11.30;;
10144;SDS011;5113;41.822;23.564;2024-03-08T14:55:04;12.03;;;9.37;;
10144;SDS011;5113;41.822;23.564;2024-03-08T14:58:13;10.07;;;8.10;;
10144;SDS011;5113;41.822;23.564;2024-03-08T15:01:19;15.93;;;13.03;;
10144;SDS011;5113;41.822;23.564;2024-03-08T15:04:32;9.40;;;8.37;;
10144;SDS011;5113;41.822;23.564;2024-03-08T15:07:40;11.57;;;7.47;;
10144;SDS011;5113;41.822;23.564;2024-03-08T15:10:48;20.80;;;14.23;;
10144;SDS011;5113;41.822;23.564;2024-03-08T15:13:59;12.23;;;6.73;;
10144;SDS011;5113;41.822;23.564;2024-03-08T15:17:06;13.87;;;8.40;;
10144;SDS011;5113;41.822;23.564;2024-03-08T15:20:17;9.33;;;7.60;;
10144;SDS011;5113;41.822;23.564;2024-03-08T15:23:34;13.23;;;8.73;;
10144;SDS011;5113;41.822;23.564;2024-03-08T15:26:42;24.20;;;17.43;;
10144;SDS011;5113;41.822;23.564;2024-03-08T15:29:52;15.50;;;8.90;;
10144;SDS011;5113;41.822;23.564;2024-03-08T15:33:00;11.20;;;9.60;;
10144;SDS011;5113;41.822;23.564;2024-03-08T15:36:08;13.90;;;10.20;;
10144;SDS011;5113;41.822;23.564;2024-03-08T15:39:16;21.37;;;13.83;;
10144;SDS011;5113;41.822;23.564;2024-03-08T15:42:26;21.30;;;14.63;;
10144;SDS011;5113;41.822;23.564;2024-03-08T15:45:34;26.27;;;14.67;;
10144;SDS011;5113;41.822;23.564;2024-03-08T15:48:41;46.03;;;29.10;;
10144;SDS011;5113;41.822;23.564;2024-03-08T15:51:48;23.67;;;15.30;;
10144;SDS011;5113;41.822;23.564;2024-03-08T15:54:54;36.37;;;21.90;;
10144;SDS011;5113;41.822;23.564;2024-03-08T15:58:02;24.50;;;17.03;;
10144;SDS011;5113;41.822;23.564;2024-03-08T16:01:12;20.83;;;14.03;;
10144;SDS011;5113;41.822;23.564;2024-03-08T16:04:21;23.47;;;16.03;;
10144;SDS011;5113;41.822;23.564;2024-03-08T16:07:29;33.10;;;21.00;;
10144;SDS011;5113;41.822;23.564;2024-03-08T16:10:36;43.33;;;28.13;;
10144;SDS011;5113;41.822;23.564;2024-03-08T16:13:47;56.93;;;25.13;;
10144;SDS011;5113;41.822;23.564;2024-03-08T16:16:54;26.77;;;13.40;;
10144;SDS011;5113;41.822;23.564;2024-03-08T16:20:01;25.80;;;11.73;;
10144;SDS011;5113;41.822;23.564;2024-03-08T16:23:16;50.07;;;35.27;;
10144;SDS011;5113;41.822;23.564;2024-03-08T16:26:22;35.53;;;19.93;;
10144;SDS011;5113;41.822;23.564;2024-03-08T16:29:32;42.53;;;20.67;;
10144;SDS011;5113;41.822;23.564;2024-03-08T16:32:40;26.70;;;13.73;;
10144;SDS011;5113;41.822;23.564;2024-03-08T16:35:48;37.70;;;19.13;;
10144;SDS011;5113;41.822;23.564;2024-03-08T16:38:56;50.20;;;24.77;;
10144;SDS011;5113;41.822;23.564;2024-03-08T16:42:03;64.93;;;29.10;;
10144;SDS011;5113;41.822;23.564;2024-03-08T16:45:14;29.90;;;18.60;;
10144;SDS011;5113;41.822;23.564;2024-03-08T16:48:21;44.63;;;22.27;;
10144;SDS011;5113;41.822;23.564;2024-03-08T16:51:28;53.93;;;24.53;;
10144;SDS011;5113;41.822;23.564;2024-03-08T16:54:34;19.30;;;12.60;;
10144;SDS011;5113;41.822;23.564;2024-03-08T16:57:55;38.43;;;19.93;;
10144;SDS011;5113;41.822;23.564;2024-03-08T17:01:04;43.83;;;20.13;;
10144;SDS011;5113;41.822;23.564;2024-03-08T17:04:11;37.23;;;15.03;;
10144;SDS011;5113;41.822;23.564;2024-03-08T17:07:17;45.17;;;24.83;;
10144;SDS011;5113;41.822;23.564;2024-03-08T17:10:26;72.53;;;30.37;;
10144;SDS011;5113;41.822;23.564;2024-03-08T17:13:35;115.23;;;56.07;;
10144;SDS011;5113;41.822;23.564;2024-03-08T17:16:46;74.23;;;32.43;;
10144;SDS011;5113;41.822;23.564;2024-03-08T17:19:52;53.03;;;24.60;;
10144;SDS011;5113;41.822;23.564;2024-03-08T17:22:59;72.13;;;38.27;;
10144;SDS011;5113;41.822;23.564;2024-03-08T17:26:07;52.30;;;29.50;;
10144;SDS011;5113;41.822;23.564;2024-03-08T17:29:14;47.57;;;25.47;;
10144;SDS011;5113;41.822;23.564;2024-03-08T17:32:22;42.43;;;23.70;;
10144;SDS011;5113;41.822;23.564;2024-03-08T17:35:30;24.60;;;14.93;;
10144;SDS011;5113;41.822;23.564;2024-03-08T17:38:39;37.67;;;17.93;;
10144;SDS011;5113;41.822;23.564;2024-03-08T17:41:52;36.97;;;22.07;;
10144;SDS011;5113;41.822;23.564;2024-03-08T17:44:59;46.57;;;24.83;;
10144;SDS011;5113;41.822;23.564;2024-03-08T17:48:08;60.27;;;27.57;;
10144;SDS011;5113;41.822;23.564;2024-03-08T17:51:17;56.57;;;26.20;;
10144;SDS011;5113;41.822;23.564;2024-03-08T17:54:24;53.97;;;23.90;;
10144;SDS011;5113;41.822;23.564;2024-03-08T17:57:30;41.37;;;19.27;;
10144;SDS011;5113;41.822;23.564;2024-03-08T18:00:37;52.57;;;26.37;;
10144;SDS011;5113;41.822;23.564;2024-03-08T18:03:46;51.13;;;26.57;;
10144;SDS011;5113;41.822;23.564;2024-03-08T18:06:54;45.80;;;25.37;;
10144;SDS011;5113;41.822;23.564;2024-03-08T18:10:00;65.13;;;33.77;;
10144;SDS011;5113;41.822;23.564;2024-03-08T18:13:07;46.90;;;28.83;;
10144;SDS011;5113;41.822;23.564;2024-03-08T18:16:17;65.57;;;35.53;;
10144;SDS011;5113;41.822;23.564;2024-03-08T18:19:26;72.90;;;38.67;;
10144;SDS011;5113;41.822;23.564;2024-03-08T18:22:35;35.87;;;20.57;;
10144;SDS011;5113;41.822;23.564;2024-03-08T18:25:42;31.60;;;18.30;;
10144;SDS011;5113;41.822;23.564;2024-03-08T18:28:51;25.73;;;15.37;;
10144;SDS011;5113;41.822;23.564;2024-03-08T18:31:58;33.57;;;18.93;;
10144;SDS011;5113;41.822;23.564;2024-03-08T18:35:07;22.33;;;14.40;;
10144;SDS011;5113;41.822;23.564;2024-03-08T18:38:16;16.37;;;11.20;;